sensor_id;sensor_type;location;lat;lon;timestamp;temperature;humidity
29663;DHT22;16578;53.266;7.920;2024-02-23T00:02:04;11.00;77.70
29663;DHT22;16578;53.266;7.920;2024-02-23T00:04:30;11.00;77.80
29663;DHT22;16578;53.266;7.920;2024-02-23T00:06:56;11.00;77.90
29663;DHT22;16578;53.266;7.920;2024-02-23T00:09:21;10.90;77.90
29663;DHT22;16578;53.266;7.920;2024-02-23T00:11:47;10.90;78.00
29663;DHT22;16578;53.266;7.920;2024-02-23T00:14:15;10.80;78.00
29663;DHT22;16578;53.266;7.920;2024-02-23T00:16:43;10.80;78.10
29663;DHT22;16578;53.266;7.920;2024-02-23T00:19:09;10.80;78.20
29663;DHT22;16578;53.266;7.920;2024-02-23T00:21:36;10.70;78.10
29663;DHT22;16578;53.266;7.920;2024-02-23T00:24:02;10.70;78.10
29663;DHT22;16578;53.266;7.920;2024-02-23T00:26:28;10.70;78.30
29663;DHT22;16578;53.266;7.920;2024-02-23T00:28:55;10.60;78.30
29663;DHT22;16578;53.266;7.920;2024-02-23T00:31:21;10.60;78.30
29663;DHT22;16578;53.266;7.920;2024-02-23T00:33:47;10.50;78.40
29663;DHT22;16578;53.266;7.920;2024-02-23T00:36:12;10.50;78.40
29663;DHT22;16578;53.266;7.920;2024-02-23T00:38:38;10.50;78.50
29663;DHT22;16578;53.266;7.920;2024-02-23T00:41:04;10.40;78.50
29663;DHT22;16578;53.266;7.920;2024-02-23T00:43:30;10.40;78.60
29663;DHT22;16578;53.266;7.920;2024-02-23T00:46:03;10.40;78.70
29663;DHT22;16578;53.266;7.920;2024-02-23T00:48:29;10.30;78.70
29663;DHT22;16578;53.266;7.920;2024-02-23T00:50:55;10.30;78.80
29663;DHT22;16578;53.266;7.920;2024-02-23T00:53:21;10.30;78.80
29663;DHT22;16578;53.266;7.920;2024-02-23T00:55:47;10.20;78.90
29663;DHT22;16578;53.266;7.920;2024-02-23T00:58:13;10.20;78.90
29663;DHT22;16578;53.266;7.920;2024-02-23T01:00:38;10.20;79.00
29663;DHT22;16578;53.266;7.920;2024-02-23T01:03:04;10.20;79.00
29663;DHT22;16578;53.266;7.920;2024-02-23T01:05:30;10.10;79.10
29663;DHT22;16578;53.266;7.920;2024-02-23T01:07:56;10.10;79.10
29663;DHT22;16578;53.266;7.920;2024-02-23T01:10:21;10.10;79.10
29663;DHT22;16578;53.266;7.920;2024-02-23T01:12:47;10.10;79.30
29663;DHT22;16578;53.266;7.920;2024-02-23T01:15:13;10.00;79.20
29663;DHT22;16578;53.266;7.920;2024-02-23T01:17:38;10.00;80.20
29663;DHT22;16578;53.266;7.920;2024-02-23T01:20:05;10.00;79.50
29663;DHT22;16578;53.266;7.920;2024-02-23T01:22:30;10.00;79.40
29663;DHT22;16578;53.266;7.920;2024-02-23T01:24:56;10.00;79.60
29663;DHT22;16578;53.266;7.920;2024-02-23T01:27:25;9.90;79.60
29663;DHT22;16578;53.266;7.920;2024-02-23T01:29:53;9.90;79.80
29663;DHT22;16578;53.266;7.920;2024-02-23T01:32:18;9.90;79.90
29663;DHT22;16578;53.266;7.920;2024-02-23T01:34:44;9.90;79.90
29663;DHT22;16578;53.266;7.920;2024-02-23T01:37:09;9.90;79.70
29663;DHT22;16578;53.266;7.920;2024-02-23T01:39:36;9.90;79.70
29663;DHT22;16578;53.266;7.920;2024-02-23T01:42:02;9.80;79.70
29663;DHT22;16578;53.266;7.920;2024-02-23T01:44:28;9.80;79.60
29663;DHT22;16578;53.266;7.920;2024-02-23T01:46:57;9.80;79.60
29663;DHT22;16578;53.266;7.920;2024-02-23T01:49:22;9.80;79.60
29663;DHT22;16578;53.266;7.920;2024-02-23T01:51:58;9.80;79.80
29663;DHT22;16578;53.266;7.920;2024-02-23T01:54:29;9.70;79.70
29663;DHT22;16578;53.266;7.920;2024-02-23T01:56:56;9.70;79.70
29663;DHT22;16578;53.266;7.920;2024-02-23T01:59:23;9.70;79.70
29663;DHT22;16578;53.266;7.920;2024-02-23T02:01:49;9.70;79.70
29663;DHT22;16578;53.266;7.920;2024-02-23T02:04:14;9.70;79.70
29663;DHT22;16578;53.266;7.920;2024-02-23T02:06:40;9.70;79.60
29663;DHT22;16578;53.266;7.920;2024-02-23T02:09:06;9.60;79.50
29663;DHT22;16578;53.266;7.920;2024-02-23T02:11:31;9.60;79.50
29663;DHT22;16578;53.266;7.920;2024-02-23T02:13:57;9.50;79.50
29663;DHT22;16578;53.266;7.920;2024-02-23T02:16:23;9.50;79.50
29663;DHT22;16578;53.266;7.920;2024-02-23T02:18:48;9.50;79.50
29663;DHT22;16578;53.266;7.920;2024-02-23T02:21:14;9.50;79.30
29663;DHT22;16578;53.266;7.920;2024-02-23T02:23:39;9.40;79.30
29663;DHT22;16578;53.266;7.920;2024-02-23T02:26:05;9.40;79.20
29663;DHT22;16578;53.266;7.920;2024-02-23T02:28:31;9.40;79.30
29663;DHT22;16578;53.266;7.920;2024-02-23T02:30:57;9.40;79.40
29663;DHT22;16578;53.266;7.920;2024-02-23T02:33:22;9.30;79.30
29663;DHT22;16578;53.266;7.920;2024-02-23T02:35:49;9.30;79.30
29663;DHT22;16578;53.266;7.920;2024-02-23T02:38:17;9.20;79.30
29663;DHT22;16578;53.266;7.920;2024-02-23T02:40:43;9.20;79.40
29663;DHT22;16578;53.266;7.920;2024-02-23T02:43:09;9.20;79.40
29663;DHT22;16578;53.266;7.920;2024-02-23T02:45:34;9.10;79.40
29663;DHT22;16578;53.266;7.920;2024-02-23T02:48:00;9.10;79.40
29663;DHT22;16578;53.266;7.920;2024-02-23T02:50:27;9.10;79.30
29663;DHT22;16578;53.266;7.920;2024-02-23T02:52:53;9.10;79.40
29663;DHT22;16578;53.266;7.920;2024-02-23T02:55:18;9.10;79.40
29663;DHT22;16578;53.266;7.920;2024-02-23T02:57:44;9.10;79.50
29663;DHT22;16578;53.266;7.920;2024-02-23T03:00:10;9.00;79.60
29663;DHT22;16578;53.266;7.920;2024-02-23T03:02:36;9.10;79.80
29663;DHT22;16578;53.266;7.920;2024-02-23T03:05:02;9.10;79.90
29663;DHT22;16578;53.266;7.920;2024-02-23T03:07:27;9.00;79.90
29663;DHT22;16578;53.266;7.920;2024-02-23T03:09:53;9.10;80.10
29663;DHT22;16578;53.266;7.920;2024-02-23T03:12:19;9.10;80.00
29663;DHT22;16578;53.266;7.920;2024-02-23T03:14:45;9.10;80.10
29663;DHT22;16578;53.266;7.920;2024-02-23T03:17:11;9.10;80.10
29663;DHT22;16578;53.266;7.920;2024-02-23T03:19:37;9.10;80.20
29663;DHT22;16578;53.266;7.920;2024-02-23T03:22:03;9.10;80.30
29663;DHT22;16578;53.266;7.920;2024-02-23T03:24:29;9.10;80.30
29663;DHT22;16578;53.266;7.920;2024-02-23T03:26:55;9.10;80.30
29663;DHT22;16578;53.266;7.920;2024-02-23T03:29:21;9.10;80.30
29663;DHT22;16578;53.266;7.920;2024-02-23T03:31:52;9.20;80.30
29663;DHT22;16578;53.266;7.920;2024-02-23T03:34:19;9.20;80.30
29663;DHT22;16578;53.266;7.920;2024-02-23T03:36:44;9.20;80.20
29663;DHT22;16578;53.266;7.920;2024-02-23T03:39:10;9.20;80.20
29663;DHT22;16578;53.266;7.920;2024-02-23T03:41:36;9.20;80.20
29663;DHT22;16578;53.266;7.920;2024-02-23T03:44:01;9.20;80.30
29663;DHT22;16578;53.266;7.920;2024-02-23T03:46:27;9.20;80.40
29663;DHT22;16578;53.266;7.920;2024-02-23T03:48:52;9.20;80.40
29663;DHT22;16578;53.266;7.920;2024-02-23T03:51:18;9.20;80.50
29663;DHT22;16578;53.266;7.920;2024-02-23T03:53:43;9.20;80.60
29663;DHT22;16578;53.266;7.920;2024-02-23T03:56:09;9.30;80.60
29663;DHT22;16578;53.266;7.920;2024-02-23T03:58:35;9.30;80.70
29663;DHT22;16578;53.266;7.920;2024-02-23T04:01:00;9.30;80.70
29663;DHT22;16578;53.266;7.920;2024-02-23T04:03:26;9.20;80.60
29663;DHT22;16578;53.266;7.920;2024-02-23T04:05:51;9.30;80.80
29663;DHT22;16578;53.266;7.920;2024-02-23T04:08:17;9.30;80.80
29663;DHT22;16578;53.266;7.920;2024-02-23T04:10:43;9.30;80.80
29663;DHT22;16578;53.266;7.920;2024-02-23T04:13:08;9.30;80.90
29663;DHT22;16578;53.266;7.920;2024-02-23T04:15:34;9.40;81.00
29663;DHT22;16578;53.266;7.920;2024-02-23T04:17:59;9.40;81.00
29663;DHT22;16578;53.266;7.920;2024-02-23T04:20:25;9.30;80.90
29663;DHT22;16578;53.266;7.920;2024-02-23T04:22:51;9.40;80.90
29663;DHT22;16578;53.266;7.920;2024-02-23T04:25:16;9.40;81.00
29663;DHT22;16578;53.266;7.920;2024-02-23T04:27:42;9.40;81.00
29663;DHT22;16578;53.266;7.920;2024-02-23T04:30:09;9.30;80.70
29663;DHT22;16578;53.266;7.920;2024-02-23T04:32:35;9.30;80.70
29663;DHT22;16578;53.266;7.920;2024-02-23T04:35:00;9.30;80.50
29663;DHT22;16578;53.266;7.920;2024-02-23T04:37:26;9.30;80.30
29663;DHT22;16578;53.266;7.920;2024-02-23T04:39:51;9.20;80.30
29663;DHT22;16578;53.266;7.920;2024-02-23T04:42:17;9.20;80.30
29663;DHT22;16578;53.266;7.920;2024-02-23T04:44:43;9.20;80.30
29663;DHT22;16578;53.266;7.920;2024-02-23T04:47:08;9.10;80.20
29663;DHT22;16578;53.266;7.920;2024-02-23T04:49:34;9.10;80.20
29663;DHT22;16578;53.266;7.920;2024-02-23T04:52:00;9.10;80.20
29663;DHT22;16578;53.266;7.920;2024-02-23T04:54:25;9.00;80.20
29663;DHT22;16578;53.266;7.920;2024-02-23T04:56:51;9.00;80.30
29663;DHT22;16578;53.266;7.920;2024-02-23T04:59:17;9.00;80.30
29663;DHT22;16578;53.266;7.920;2024-02-23T05:01:42;9.00;80.40
29663;DHT22;16578;53.266;7.920;2024-02-23T05:04:08;8.90;80.40
29663;DHT22;16578;53.266;7.920;2024-02-23T05:06:34;8.90;80.40
29663;DHT22;16578;53.266;7.920;2024-02-23T05:09:01;8.90;80.40
29663;DHT22;16578;53.266;7.920;2024-02-23T05:11:26;8.90;80.30
29663;DHT22;16578;53.266;7.920;2024-02-23T05:13:52;8.90;80.30
29663;DHT22;16578;53.266;7.920;2024-02-23T05:16:18;8.80;80.20
29663;DHT22;16578;53.266;7.920;2024-02-23T05:18:43;8.80;80.20
29663;DHT22;16578;53.266;7.920;2024-02-23T05:21:10;8.80;80.20
29663;DHT22;16578;53.266;7.920;2024-02-23T05:23:39;8.80;80.10
29663;DHT22;16578;53.266;7.920;2024-02-23T05:26:04;8.80;80.10
29663;DHT22;16578;53.266;7.920;2024-02-23T05:28:30;8.80;80.20
29663;DHT22;16578;53.266;7.920;2024-02-23T05:30:55;8.80;80.20
29663;DHT22;16578;53.266;7.920;2024-02-23T05:33:22;8.70;80.20
29663;DHT22;16578;53.266;7.920;2024-02-23T05:35:47;8.80;80.20
29663;DHT22;16578;53.266;7.920;2024-02-23T05:38:16;8.70;80.10
29663;DHT22;16578;53.266;7.920;2024-02-23T05:40:42;8.70;80.20
29663;DHT22;16578;53.266;7.920;2024-02-23T05:43:08;8.70;80.20
29663;DHT22;16578;53.266;7.920;2024-02-23T05:45:34;8.70;80.10
29663;DHT22;16578;53.266;7.920;2024-02-23T05:47:59;8.60;80.10
29663;DHT22;16578;53.266;7.920;2024-02-23T05:50:25;8.60;80.20
29663;DHT22;16578;53.266;7.920;2024-02-23T05:52:51;8.60;80.30
29663;DHT22;16578;53.266;7.920;2024-02-23T05:55:18;8.60;80.30
29663;DHT22;16578;53.266;7.920;2024-02-23T05:57:44;8.60;80.40
29663;DHT22;16578;53.266;7.920;2024-02-23T06:00:10;8.60;80.40
29663;DHT22;16578;53.266;7.920;2024-02-23T06:02:36;8.60;80.40
29663;DHT22;16578;53.266;7.920;2024-02-23T06:05:02;8.60;80.40
29663;DHT22;16578;53.266;7.920;2024-02-23T06:07:29;8.60;80.40
29663;DHT22;16578;53.266;7.920;2024-02-23T06:09:58;8.60;80.50
29663;DHT22;16578;53.266;7.920;2024-02-23T06:12:26;8.60;80.50
29663;DHT22;16578;53.266;7.920;2024-02-23T06:14:52;8.60;80.50
29663;DHT22;16578;53.266;7.920;2024-02-23T06:17:18;8.60;80.50
29663;DHT22;16578;53.266;7.920;2024-02-23T06:19:43;8.70;80.60
29663;DHT22;16578;53.266;7.920;2024-02-23T06:22:09;8.60;80.50
29663;DHT22;16578;53.266;7.920;2024-02-23T06:24:38;8.60;80.50
29663;DHT22;16578;53.266;7.920;2024-02-23T06:27:04;8.60;80.50
29663;DHT22;16578;53.266;7.920;2024-02-23T06:29:29;8.70;80.60
29663;DHT22;16578;53.266;7.920;2024-02-23T06:31:55;8.70;80.70
29663;DHT22;16578;53.266;7.920;2024-02-23T06:34:21;8.70;80.70
29663;DHT22;16578;53.266;7.920;2024-02-23T06:36:47;8.70;80.70
29663;DHT22;16578;53.266;7.920;2024-02-23T06:39:12;8.70;80.80
29663;DHT22;16578;53.266;7.920;2024-02-23T06:41:39;8.80;80.90
29663;DHT22;16578;53.266;7.920;2024-02-23T06:44:05;8.80;80.90
29663;DHT22;16578;53.266;7.920;2024-02-23T06:46:30;8.80;80.80
29663;DHT22;16578;53.266;7.920;2024-02-23T06:48:56;8.80;80.80
29663;DHT22;16578;53.266;7.920;2024-02-23T06:51:21;8.90;80.60
29663;DHT22;16578;53.266;7.920;2024-02-23T06:53:47;8.90;80.60
29663;DHT22;16578;53.266;7.920;2024-02-23T06:56:13;8.90;80.60
29663;DHT22;16578;53.266;7.920;2024-02-23T06:58:38;8.90;80.60
29663;DHT22;16578;53.266;7.920;2024-02-23T07:01:04;8.90;80.60
29663;DHT22;16578;53.266;7.920;2024-02-23T07:03:33;9.00;80.70
29663;DHT22;16578;53.266;7.920;2024-02-23T07:05:58;9.00;80.80
29663;DHT22;16578;53.266;7.920;2024-02-23T07:08:24;9.00;80.70
29663;DHT22;16578;53.266;7.920;2024-02-23T07:10:50;9.00;80.70
29663;DHT22;16578;53.266;7.920;2024-02-23T07:13:15;9.00;80.60
29663;DHT22;16578;53.266;7.920;2024-02-23T07:15:42;9.10;80.70
29663;DHT22;16578;53.266;7.920;2024-02-23T07:18:08;9.10;80.60
29663;DHT22;16578;53.266;7.920;2024-02-23T07:20:35;9.10;80.50
29663;DHT22;16578;53.266;7.920;2024-02-23T07:23:01;9.10;80.40
29663;DHT22;16578;53.266;7.920;2024-02-23T07:25:26;9.20;80.40
29663;DHT22;16578;53.266;7.920;2024-02-23T07:27:52;9.20;80.40
29663;DHT22;16578;53.266;7.920;2024-02-23T07:30:18;9.20;80.40
29663;DHT22;16578;53.266;7.920;2024-02-23T07:32:44;9.20;80.40
29663;DHT22;16578;53.266;7.920;2024-02-23T07:35:10;9.20;80.20
29663;DHT22;16578;53.266;7.920;2024-02-23T07:37:39;9.20;80.20
29663;DHT22;16578;53.266;7.920;2024-02-23T07:40:05;9.30;80.30
29663;DHT22;16578;53.266;7.920;2024-02-23T07:42:32;9.30;80.30
29663;DHT22;16578;53.266;7.920;2024-02-23T07:44:57;9.30;80.20
29663;DHT22;16578;53.266;7.920;2024-02-23T07:47:24;9.30;80.10
29663;DHT22;16578;53.266;7.920;2024-02-23T07:49:51;9.30;80.10
29663;DHT22;16578;53.266;7.920;2024-02-23T07:52:17;9.40;80.20
29663;DHT22;16578;53.266;7.920;2024-02-23T07:54:43;9.40;80.10
29663;DHT22;16578;53.266;7.920;2024-02-23T07:57:08;9.40;80.10
29663;DHT22;16578;53.266;7.920;2024-02-23T07:59:34;9.40;80.00
29663;DHT22;16578;53.266;7.920;2024-02-23T08:02:00;9.50;80.00
29663;DHT22;16578;53.266;7.920;2024-02-23T08:04:26;9.50;79.90
29663;DHT22;16578;53.266;7.920;2024-02-23T08:06:51;9.50;79.80
29663;DHT22;16578;53.266;7.920;2024-02-23T08:09:17;9.50;79.70
29663;DHT22;16578;53.266;7.920;2024-02-23T08:11:43;9.60;79.80
29663;DHT22;16578;53.266;7.920;2024-02-23T08:14:09;9.60;79.90
29663;DHT22;16578;53.266;7.920;2024-02-23T08:16:35;9.60;79.90
29663;DHT22;16578;53.266;7.920;2024-02-23T08:19:01;9.70;79.90
29663;DHT22;16578;53.266;7.920;2024-02-23T08:21:26;9.70;79.90
29663;DHT22;16578;53.266;7.920;2024-02-23T08:23:52;9.80;79.90
29663;DHT22;16578;53.266;7.920;2024-02-23T08:26:18;9.90;79.80
29663;DHT22;16578;53.266;7.920;2024-02-23T08:28:43;9.90;79.70
29663;DHT22;16578;53.266;7.920;2024-02-23T08:31:09;9.90;79.50
29663;DHT22;16578;53.266;7.920;2024-02-23T08:33:35;10.00;79.50
29663;DHT22;16578;53.266;7.920;2024-02-23T08:36:00;10.10;79.50
29663;DHT22;16578;53.266;7.920;2024-02-23T08:38:26;10.10;79.20
29663;DHT22;16578;53.266;7.920;2024-02-23T08:40:51;10.20;79.00
29663;DHT22;16578;53.266;7.920;2024-02-23T08:43:17;10.20;78.80
29663;DHT22;16578;53.266;7.920;2024-02-23T08:45:43;10.20;78.50
29663;DHT22;16578;53.266;7.920;2024-02-23T08:48:08;10.20;78.40
29663;DHT22;16578;53.266;7.920;2024-02-23T08:50:34;10.20;78.20
29663;DHT22;16578;53.266;7.920;2024-02-23T08:53:00;10.20;78.10
29663;DHT22;16578;53.266;7.920;2024-02-23T08:55:25;10.20;78.00
29663;DHT22;16578;53.266;7.920;2024-02-23T08:57:51;10.20;78.10
29663;DHT22;16578;53.266;7.920;2024-02-23T09:00:17;10.20;78.10
29663;DHT22;16578;53.266;7.920;2024-02-23T09:02:42;10.20;78.00
29663;DHT22;16578;53.266;7.920;2024-02-23T09:05:08;10.20;78.10
29663;DHT22;16578;53.266;7.920;2024-02-23T09:07:34;10.20;78.10
29663;DHT22;16578;53.266;7.920;2024-02-23T09:10:01;10.30;78.20
29663;DHT22;16578;53.266;7.920;2024-02-23T09:12:27;10.30;78.10
29663;DHT22;16578;53.266;7.920;2024-02-23T09:14:52;10.40;78.20
29663;DHT22;16578;53.266;7.920;2024-02-23T09:17:18;10.40;78.10
29663;DHT22;16578;53.266;7.920;2024-02-23T09:19:45;10.40;78.00
29663;DHT22;16578;53.266;7.920;2024-02-23T09:22:11;10.50;78.00
29663;DHT22;16578;53.266;7.920;2024-02-23T09:24:40;10.50;78.00
29663;DHT22;16578;53.266;7.920;2024-02-23T09:27:06;10.60;77.80
29663;DHT22;16578;53.266;7.920;2024-02-23T09:29:32;10.60;77.70
29663;DHT22;16578;53.266;7.920;2024-02-23T09:31:58;10.60;77.70
29663;DHT22;16578;53.266;7.920;2024-02-23T09:34:24;10.60;77.50
29663;DHT22;16578;53.266;7.920;2024-02-23T09:36:50;10.70;77.40
29663;DHT22;16578;53.266;7.920;2024-02-23T09:39:16;10.70;77.40
29663;DHT22;16578;53.266;7.920;2024-02-23T09:41:42;10.70;77.20
29663;DHT22;16578;53.266;7.920;2024-02-23T09:44:08;10.80;77.00
29663;DHT22;16578;53.266;7.920;2024-02-23T09:46:36;10.80;77.10
29663;DHT22;16578;53.266;7.920;2024-02-23T09:49:02;10.80;76.90
29663;DHT22;16578;53.266;7.920;2024-02-23T09:51:29;10.80;76.70
29663;DHT22;16578;53.266;7.920;2024-02-23T09:53:56;10.80;76.60
29663;DHT22;16578;53.266;7.920;2024-02-23T09:56:26;10.90;76.70
29663;DHT22;16578;53.266;7.920;2024-02-23T09:58:53;10.90;76.60
29663;DHT22;16578;53.266;7.920;2024-02-23T10:01:25;10.90;76.40
29663;DHT22;16578;53.266;7.920;2024-02-23T10:03:54;11.00;76.40
29663;DHT22;16578;53.266;7.920;2024-02-23T10:06:22;11.00;76.40
29663;DHT22;16578;53.266;7.920;2024-02-23T10:08:48;11.00;76.10
29663;DHT22;16578;53.266;7.920;2024-02-23T10:11:13;11.10;76.10
29663;DHT22;16578;53.266;7.920;2024-02-23T10:13:41;11.10;75.80
29663;DHT22;16578;53.266;7.920;2024-02-23T10:16:06;11.10;75.60
29663;DHT22;16578;53.266;7.920;2024-02-23T10:18:32;11.10;75.40
29663;DHT22;16578;53.266;7.920;2024-02-23T10:20:58;11.10;75.00
29663;DHT22;16578;53.266;7.920;2024-02-23T10:23:23;11.20;75.00
29663;DHT22;16578;53.266;7.920;2024-02-23T10:25:49;11.20;74.90
29663;DHT22;16578;53.266;7.920;2024-02-23T10:28:14;11.20;74.70
29663;DHT22;16578;53.266;7.920;2024-02-23T10:30:40;11.20;74.60
29663;DHT22;16578;53.266;7.920;2024-02-23T10:33:06;11.30;74.80
29663;DHT22;16578;53.266;7.920;2024-02-23T10:35:32;11.30;74.80
29663;DHT22;16578;53.266;7.920;2024-02-23T10:38:00;11.30;74.60
29663;DHT22;16578;53.266;7.920;2024-02-23T10:40:27;11.30;74.50
29663;DHT22;16578;53.266;7.920;2024-02-23T10:42:57;11.30;74.80
29663;DHT22;16578;53.266;7.920;2024-02-23T10:45:28;11.40;74.50
29663;DHT22;16578;53.266;7.920;2024-02-23T10:47:55;11.40;74.30
29663;DHT22;16578;53.266;7.920;2024-02-23T10:50:23;11.30;74.00
29663;DHT22;16578;53.266;7.920;2024-02-23T10:52:50;11.40;74.90
29663;DHT22;16578;53.266;7.920;2024-02-23T10:55:16;11.40;73.90
29663;DHT22;16578;53.266;7.920;2024-02-23T10:57:42;11.40;73.90
29663;DHT22;16578;53.266;7.920;2024-02-23T11:00:09;11.40;73.70
29663;DHT22;16578;53.266;7.920;2024-02-23T11:02:55;11.40;73.40
29663;DHT22;16578;53.266;7.920;2024-02-23T11:05:22;11.40;73.10
29663;DHT22;16578;53.266;7.920;2024-02-23T11:07:48;11.40;73.60
29663;DHT22;16578;53.266;7.920;2024-02-23T11:10:15;11.50;73.60
29663;DHT22;16578;53.266;7.920;2024-02-23T11:12:41;11.50;73.20
29663;DHT22;16578;53.266;7.920;2024-02-23T11:15:07;11.50;72.90
29663;DHT22;16578;53.266;7.920;2024-02-23T11:17:35;11.50;72.80
29663;DHT22;16578;53.266;7.920;2024-02-23T11:20:04;11.60;72.70
29663;DHT22;16578;53.266;7.920;2024-02-23T11:22:32;11.60;72.50
29663;DHT22;16578;53.266;7.920;2024-02-23T11:25:05;11.60;72.60
29663;DHT22;16578;53.266;7.920;2024-02-23T11:27:33;11.60;72.10
29663;DHT22;16578;53.266;7.920;2024-02-23T11:29:59;11.60;72.20
29663;DHT22;16578;53.266;7.920;2024-02-23T11:35:03;11.60;72.00
29663;DHT22;16578;53.266;7.920;2024-02-23T11:37:31;11.60;72.00
29663;DHT22;16578;53.266;7.920;2024-02-23T11:39:59;11.60;71.90
29663;DHT22;16578;53.266;7.920;2024-02-23T11:42:27;11.60;71.90
29663;DHT22;16578;53.266;7.920;2024-02-23T11:44:53;11.50;71.90
29663;DHT22;16578;53.266;7.920;2024-02-23T11:47:21;11.50;71.90
29663;DHT22;16578;53.266;7.920;2024-02-23T11:49:47;11.50;71.80
29663;DHT22;16578;53.266;7.920;2024-02-23T11:52:12;11.50;71.60
29663;DHT22;16578;53.266;7.920;2024-02-23T11:54:38;11.50;71.70
29663;DHT22;16578;53.266;7.920;2024-02-23T11:57:04;11.50;71.70
29663;DHT22;16578;53.266;7.920;2024-02-23T11:59:30;11.50;71.60
29663;DHT22;16578;53.266;7.920;2024-02-23T12:01:55;11.50;71.60
29663;DHT22;16578;53.266;7.920;2024-02-23T12:04:21;11.50;71.70
29663;DHT22;16578;53.266;7.920;2024-02-23T12:06:47;11.50;71.60
29663;DHT22;16578;53.266;7.920;2024-02-23T12:09:13;11.40;71.60
29663;DHT22;16578;53.266;7.920;2024-02-23T12:11:39;11.50;71.60
29663;DHT22;16578;53.266;7.920;2024-02-23T12:14:05;11.50;71.60
29663;DHT22;16578;53.266;7.920;2024-02-23T12:16:34;11.50;71.60
29663;DHT22;16578;53.266;7.920;2024-02-23T12:19:03;11.50;71.70
29663;DHT22;16578;53.266;7.920;2024-02-23T12:21:29;11.50;71.70
29663;DHT22;16578;53.266;7.920;2024-02-23T12:23:54;11.50;71.40
29663;DHT22;16578;53.266;7.920;2024-02-23T12:26:20;11.60;71.50
29663;DHT22;16578;53.266;7.920;2024-02-23T12:28:46;11.60;71.40
29663;DHT22;16578;53.266;7.920;2024-02-23T12:31:12;11.60;71.50
29663;DHT22;16578;53.266;7.920;2024-02-23T12:33:39;11.60;71.40
29663;DHT22;16578;53.266;7.920;2024-02-23T12:36:06;11.60;71.40
29663;DHT22;16578;53.266;7.920;2024-02-23T12:38:32;11.60;71.50
29663;DHT22;16578;53.266;7.920;2024-02-23T12:40:59;11.60;71.60
29663;DHT22;16578;53.266;7.920;2024-02-23T12:43:25;11.70;71.50
29663;DHT22;16578;53.266;7.920;2024-02-23T12:45:52;11.70;71.50
29663;DHT22;16578;53.266;7.920;2024-02-23T12:48:18;11.70;71.60
29663;DHT22;16578;53.266;7.920;2024-02-23T12:50:44;11.80;71.40
29663;DHT22;16578;53.266;7.920;2024-02-23T12:53:33;11.80;71.30
29663;DHT22;16578;53.266;7.920;2024-02-23T12:56:00;11.80;70.60
29663;DHT22;16578;53.266;7.920;2024-02-23T12:58:26;11.80;71.20
29663;DHT22;16578;53.266;7.920;2024-02-23T13:00:52;11.80;71.00
29663;DHT22;16578;53.266;7.920;2024-02-23T13:03:17;11.80;70.90
29663;DHT22;16578;53.266;7.920;2024-02-23T13:05:43;11.90;70.80
29663;DHT22;16578;53.266;7.920;2024-02-23T13:08:08;11.80;70.70
29663;DHT22;16578;53.266;7.920;2024-02-23T13:10:34;11.80;70.70
29663;DHT22;16578;53.266;7.920;2024-02-23T13:13:00;11.80;70.80
29663;DHT22;16578;53.266;7.920;2024-02-23T13:15:26;11.90;71.00
29663;DHT22;16578;53.266;7.920;2024-02-23T13:17:51;11.90;71.10
29663;DHT22;16578;53.266;7.920;2024-02-23T13:20:17;12.00;71.20
29663;DHT22;16578;53.266;7.920;2024-02-23T13:22:43;11.90;71.10
29663;DHT22;16578;53.266;7.920;2024-02-23T13:25:08;11.90;71.80
29663;DHT22;16578;53.266;7.920;2024-02-23T13:27:34;12.00;71.10
29663;DHT22;16578;53.266;7.920;2024-02-23T13:30:00;12.00;71.10
29663;DHT22;16578;53.266;7.920;2024-02-23T13:32:25;12.00;71.10
29663;DHT22;16578;53.266;7.920;2024-02-23T13:34:51;12.00;71.00
29663;DHT22;16578;53.266;7.920;2024-02-23T13:37:18;12.00;71.20
29663;DHT22;16578;53.266;7.920;2024-02-23T13:39:43;12.00;71.00
29663;DHT22;16578;53.266;7.920;2024-02-23T13:42:09;11.90;70.90
29663;DHT22;16578;53.266;7.920;2024-02-23T13:44:36;11.90;71.20
29663;DHT22;16578;53.266;7.920;2024-02-23T13:47:01;11.80;71.40
29663;DHT22;16578;53.266;7.920;2024-02-23T13:49:28;11.80;71.60
29663;DHT22;16578;53.266;7.920;2024-02-23T13:51:53;11.70;71.80
29663;DHT22;16578;53.266;7.920;2024-02-23T13:54:20;11.70;72.20
29663;DHT22;16578;53.266;7.920;2024-02-23T13:56:46;11.60;72.40
29663;DHT22;16578;53.266;7.920;2024-02-23T13:59:12;11.60;72.80
29663;DHT22;16578;53.266;7.920;2024-02-23T14:01:38;11.60;73.00
29663;DHT22;16578;53.266;7.920;2024-02-23T14:04:07;11.50;73.20
29663;DHT22;16578;53.266;7.920;2024-02-23T14:06:35;11.50;73.30
29663;DHT22;16578;53.266;7.920;2024-02-23T14:09:01;11.50;73.50
29663;DHT22;16578;53.266;7.920;2024-02-23T14:11:29;11.40;73.70
29663;DHT22;16578;53.266;7.920;2024-02-23T14:13:55;11.40;73.90
29663;DHT22;16578;53.266;7.920;2024-02-23T14:16:21;11.40;74.00
29663;DHT22;16578;53.266;7.920;2024-02-23T14:18:49;11.40;74.00
29663;DHT22;16578;53.266;7.920;2024-02-23T14:21:14;11.40;74.10
29663;DHT22;16578;53.266;7.920;2024-02-23T14:23:41;11.30;74.00
29663;DHT22;16578;53.266;7.920;2024-02-23T14:26:06;11.30;74.10
29663;DHT22;16578;53.266;7.920;2024-02-23T14:28:32;11.30;74.40
29663;DHT22;16578;53.266;7.920;2024-02-23T14:30:58;11.30;74.40
29663;DHT22;16578;53.266;7.920;2024-02-23T14:33:24;11.30;74.50
29663;DHT22;16578;53.266;7.920;2024-02-23T14:35:49;11.30;74.60
29663;DHT22;16578;53.266;7.920;2024-02-23T14:38:15;11.30;74.70
29663;DHT22;16578;53.266;7.920;2024-02-23T14:40:42;11.30;74.70
29663;DHT22;16578;53.266;7.920;2024-02-23T14:43:08;11.30;74.60
29663;DHT22;16578;53.266;7.920;2024-02-23T14:45:35;11.30;74.50
29663;DHT22;16578;53.266;7.920;2024-02-23T14:48:01;11.20;74.50
29663;DHT22;16578;53.266;7.920;2024-02-23T14:50:27;11.20;74.50
29663;DHT22;16578;53.266;7.920;2024-02-23T14:52:53;11.30;74.60
29663;DHT22;16578;53.266;7.920;2024-02-23T14:55:19;11.20;74.70
29663;DHT22;16578;53.266;7.920;2024-02-23T14:57:45;11.30;74.80
29663;DHT22;16578;53.266;7.920;2024-02-23T15:00:11;11.30;74.80
29663;DHT22;16578;53.266;7.920;2024-02-23T15:02:38;11.30;74.70
29663;DHT22;16578;53.266;7.920;2024-02-23T15:05:05;11.30;74.80
29663;DHT22;16578;53.266;7.920;2024-02-23T15:07:32;11.30;74.70
29663;DHT22;16578;53.266;7.920;2024-02-23T15:09:58;11.30;74.70
29663;DHT22;16578;53.266;7.920;2024-02-23T15:12:24;11.30;74.80
29663;DHT22;16578;53.266;7.920;2024-02-23T15:14:53;11.30;74.60
29663;DHT22;16578;53.266;7.920;2024-02-23T15:17:19;11.30;74.60
29663;DHT22;16578;53.266;7.920;2024-02-23T15:19:45;11.30;74.70
29663;DHT22;16578;53.266;7.920;2024-02-23T15:22:11;11.30;74.60
29663;DHT22;16578;53.266;7.920;2024-02-23T15:24:40;11.30;74.60
29663;DHT22;16578;53.266;7.920;2024-02-23T15:27:08;11.30;74.40
29663;DHT22;16578;53.266;7.920;2024-02-23T15:29:34;11.30;74.50
29663;DHT22;16578;53.266;7.920;2024-02-23T15:32:00;11.30;74.40
29663;DHT22;16578;53.266;7.920;2024-02-23T15:34:26;11.30;74.40